createdAt,value
2023-03-11T00:02:16.031Z,90808.94
2023-03-11T00:04:42.674Z,90806.72
2023-03-11T00:07:10.514Z,90802.41
2023-03-11T00:09:37.363Z,90803.47
2023-03-11T00:12:04.660Z,90802.41
2023-03-11T00:14:31.121Z,90793.84
2023-03-11T00:16:57.702Z,90791.47
2023-03-11T00:19:24.263Z,90790.72
2023-03-11T00:21:50.835Z,90792.41
2023-03-11T00:24:17.274Z,90787.34
2023-03-11T00:26:43.701Z,90784.22
2023-03-11T00:29:10.271Z,90778.75
2023-03-11T00:31:36.792Z,90782.81
2023-03-11T00:34:03.273Z,90778.38
2023-03-11T00:36:31.698Z,90775.66
2023-03-11T00:38:58.641Z,90775.66
2023-03-11T00:41:25.177Z,90778.25
2023-03-11T00:43:51.850Z,90764.34
2023-03-11T00:46:18.436Z,90769.69
2023-03-11T00:48:45.004Z,90757.94
2023-03-11T00:51:16.067Z,90753.53
2023-03-11T00:53:42.780Z,90748.59
2023-03-11T00:56:13.531Z,90749.09
2023-03-11T00:58:40.664Z,90741.19
2023-03-11T01:01:16.592Z,90739.47
2023-03-11T01:03:43.157Z,90730.09
2023-03-11T01:06:09.630Z,90729.09
2023-03-11T01:08:36.220Z,90725.06
2023-03-11T01:11:04.197Z,90723.38
2023-03-11T01:13:31.201Z,90733.47
2023-03-11T01:15:58.197Z,90726.44
2023-03-11T01:18:25.360Z,90728.53
2023-03-11T01:20:52.678Z,90727.34
2023-03-11T01:23:20.055Z,90732.16
2023-03-11T01:25:46.557Z,90723.19
2023-03-11T01:28:13.468Z,90723.31
2023-03-11T01:30:41.638Z,90723.03
2023-03-11T01:33:14.935Z,90719.75
2023-03-11T01:35:42.337Z,90722.22
2023-03-11T01:38:09.336Z,90715.47
2023-03-11T01:40:44.111Z,90714.91
2023-03-11T01:43:40.625Z,90696.22
2023-03-11T01:46:18.626Z,90695.69
2023-03-11T01:48:53.301Z,90699.34
2023-03-11T01:51:23.585Z,90693.38
2023-03-11T01:53:50.269Z,90698.81
2023-03-11T01:56:16.892Z,90689.06
2023-03-11T01:58:46.328Z,90683.34
2023-03-11T02:01:13.199Z,90678.00
2023-03-11T02:03:42.080Z,90685.81
2023-03-11T02:06:15.798Z,90685.53
2023-03-11T02:08:42.914Z,90694.16
2023-03-11T02:11:12.705Z,90690.81
2023-03-11T02:13:39.950Z,90683.63
2023-03-11T02:16:06.983Z,90684.19
2023-03-11T02:18:33.793Z,90672.75
2023-03-11T02:21:22.832Z,90670.66
2023-03-11T02:24:07.919Z,90672.34
2023-03-11T02:26:55.475Z,90669.09
2023-03-11T02:29:23.196Z,90663.97
2023-03-11T02:31:49.995Z,90648.56
2023-03-11T02:34:23.144Z,90653.50
2023-03-11T02:36:49.589Z,90647.75
2023-03-11T02:39:16.358Z,90642.72
2023-03-11T02:41:45.697Z,90647.19
2023-03-11T02:44:14.528Z,90647.72
2023-03-11T02:46:42.655Z,90649.94
2023-03-11T02:49:09.735Z,90654.81
2023-03-11T02:51:36.248Z,90643.13
2023-03-11T02:54:05.365Z,90638.06
2023-03-11T02:56:31.835Z,90640.91
2023-03-11T02:58:58.456Z,90645.84
2023-03-11T03:01:25.007Z,90642.31
2023-03-11T03:03:51.623Z,90636.31
2023-03-11T03:06:18.208Z,90640.88
2023-03-11T03:08:44.952Z,90633.06
2023-03-11T03:11:11.658Z,90627.88
2023-03-11T03:13:38.108Z,90630.38
2023-03-11T03:16:05.039Z,90629.16
2023-03-11T03:18:31.633Z,90623.94
2023-03-11T03:20:58.100Z,90634.88
2023-03-11T03:23:24.629Z,90622.28
2023-03-11T03:25:51.124Z,90627.31
2023-03-11T03:28:17.564Z,90629.22
2023-03-11T03:30:44.054Z,90626.53
2023-03-11T03:33:10.931Z,90623.31
2023-03-11T03:35:43.531Z,90623.59
2023-03-11T03:38:10.034Z,90619.09
2023-03-11T03:40:36.633Z,90621.31
2023-03-11T03:43:03.613Z,90617.72
2023-03-11T03:45:30.338Z,90607.66
2023-03-11T03:47:56.834Z,90611.25
2023-03-11T03:50:23.753Z,90613.56
2023-03-11T03:52:50.273Z,90613.97
2023-03-11T03:55:16.825Z,90605.38
2023-03-11T03:57:43.341Z,90602.47
2023-03-11T04:00:10.607Z,90612.13
2023-03-11T04:02:37.237Z,90600.47
2023-03-11T04:05:04.010Z,90592.41
2023-03-11T04:07:30.478Z,90594.22
2023-03-11T04:09:57.050Z,90598.38
2023-03-11T04:12:23.670Z,90590.06
2023-03-11T04:14:50.119Z,90590.84
2023-03-11T04:17:17.811Z,90588.53
2023-03-11T04:19:44.342Z,90597.47
2023-03-11T04:22:10.797Z,90577.09
2023-03-11T04:24:37.289Z,90578.41
2023-03-11T04:27:03.774Z,90582.81
2023-03-11T04:29:30.307Z,90575.28
2023-03-11T04:31:56.894Z,90567.22
2023-03-11T04:34:23.466Z,90562.59
2023-03-11T04:36:53.870Z,90569.72
2023-03-11T04:39:21.184Z,90583.34
2023-03-11T04:41:47.660Z,90569.72
2023-03-11T04:44:14.565Z,90568.97
2023-03-11T04:46:41.124Z,90572.44
2023-03-11T04:49:08.119Z,90574.91
2023-03-11T04:51:34.655Z,90576.63
2023-03-11T04:54:01.259Z,90579.06
2023-03-11T04:56:27.779Z,90577.94
2023-03-11T04:58:54.238Z,90574.16
2023-03-11T05:01:20.732Z,90584.47
2023-03-11T05:03:47.351Z,90570.63
2023-03-11T05:06:13.865Z,90575.41
2023-03-11T05:08:40.571Z,90577.22
2023-03-11T05:11:07.636Z,90570.88
2023-03-11T05:13:34.093Z,90572.06
2023-03-11T05:16:00.783Z,90565.97
2023-03-11T05:18:27.282Z,90563.53
2023-03-11T05:20:53.808Z,90566.34
2023-03-11T05:23:20.342Z,90563.34
2023-03-11T05:25:46.846Z,90562.94
2023-03-11T05:28:13.333Z,90563.03
2023-03-11T05:30:39.843Z,90554.47
2023-03-11T05:33:06.356Z,90562.63
2023-03-11T05:35:32.876Z,90549.50
2023-03-11T05:37:59.298Z,90555.53
2023-03-11T05:40:25.821Z,90553.94
2023-03-11T05:42:52.321Z,90553.41
2023-03-11T05:45:18.858Z,90551.75
2023-03-11T05:47:45.475Z,90545.44
2023-03-11T05:50:12.976Z,90542.97
2023-03-11T05:52:39.650Z,90546.19
2023-03-11T05:55:06.961Z,90539.50
2023-03-11T05:57:33.682Z,90533.69
2023-03-11T06:00:00.270Z,90532.13
2023-03-11T06:02:26.950Z,90534.53
2023-03-11T06:04:54.094Z,90523.94
2023-03-11T06:07:20.819Z,90529.19
2023-03-11T06:09:50.339Z,90528.94
2023-03-11T06:12:16.981Z,90537.63
2023-03-11T06:14:43.596Z,90541.69
2023-03-11T06:17:10.144Z,90549.66
2023-03-11T06:19:36.730Z,90549.25
2023-03-11T06:22:03.213Z,90553.47
2023-03-11T06:24:29.837Z,90548.44
2023-03-11T06:26:56.353Z,90554.66
2023-03-11T06:29:24.496Z,90562.66
2023-03-11T06:31:51.362Z,90570.72
2023-03-11T06:34:18.048Z,90567.63
2023-03-11T06:36:44.558Z,90568.19
2023-03-11T06:39:14.593Z,90567.09
2023-03-11T06:41:42.208Z,90559.84
2023-03-11T06:44:11.617Z,90560.50
2023-03-11T06:46:38.232Z,90560.91
2023-03-11T06:49:04.744Z,90558.44
2023-03-11T06:51:31.358Z,90549.63
2023-03-11T06:53:58.021Z,90556.34
2023-03-11T06:56:24.946Z,90552.09
2023-03-11T06:58:51.571Z,90557.13
2023-03-11T07:01:23.434Z,90555.63
2023-03-11T07:03:51.014Z,90566.91
2023-03-11T07:06:23.164Z,90566.59
2023-03-11T07:08:51.131Z,90568.94
2023-03-11T07:11:20.492Z,90559.38
2023-03-11T07:13:47.353Z,90560.50
2023-03-11T07:16:20.686Z,90566.13
2023-03-11T07:18:48.644Z,90566.13
2023-03-11T07:21:17.821Z,90572.75
2023-03-11T07:23:44.620Z,90565.97
2023-03-11T07:26:13.192Z,90568.44
2023-03-11T07:28:40.148Z,90564.41
2023-03-11T07:31:11.599Z,90562.28
2023-03-11T07:33:38.462Z,90566.38
2023-03-11T07:36:07.097Z,90563.72
2023-03-11T07:38:33.710Z,90560.19
2023-03-11T07:41:00.640Z,90553.19
2023-03-11T07:43:27.343Z,90556.69
2023-03-11T07:46:06.413Z,90555.03
2023-03-11T07:48:33.637Z,90559.53
2023-03-11T07:51:01.890Z,90562.38
2023-03-11T07:53:28.447Z,90549.69
2023-03-11T07:55:58.849Z,90561.13
2023-03-11T07:58:26.163Z,90552.78
2023-03-11T08:00:52.825Z,90560.06
2023-03-11T08:03:19.331Z,90566.03
2023-03-11T08:05:45.968Z,90557.91
2023-03-11T08:08:12.433Z,90566.84
2023-03-11T08:10:39.639Z,90576.03
2023-03-11T08:13:06.251Z,90560.59
2023-03-11T08:15:33.024Z,90564.31
2023-03-11T08:17:59.677Z,90561.50
2023-03-11T08:20:26.256Z,90565.41
2023-03-11T08:22:58.113Z,90561.97
2023-03-11T08:25:25.707Z,90559.66
2023-03-11T08:27:52.413Z,90568.94
2023-03-11T08:30:19.273Z,90565.81
2023-03-11T08:32:45.813Z,90572.34
2023-03-11T08:35:12.434Z,90582.59
2023-03-11T08:37:39.254Z,90581.59
2023-03-11T08:40:06.398Z,90579.69
2023-03-11T08:42:32.967Z,90586.63
2023-03-11T08:44:59.443Z,90588.97
2023-03-11T08:47:26.038Z,90589.88
2023-03-11T08:49:52.602Z,90587.09
2023-03-11T08:52:19.211Z,90590.66
2023-03-11T08:54:45.996Z,90596.28
2023-03-11T08:57:12.618Z,90595.25
2023-03-11T08:59:39.175Z,90593.09
2023-03-11T09:02:05.702Z,90594.69
2023-03-11T09:04:32.487Z,90596.53
2023-03-11T09:06:58.978Z,90602.88
2023-03-11T09:09:25.673Z,90599.34
2023-03-11T09:11:52.338Z,90600.28
2023-03-11T09:14:18.986Z,90605.03
2023-03-11T09:16:45.669Z,90602.16
2023-03-11T09:19:12.185Z,90614.47
2023-03-11T09:21:38.903Z,90621.59
2023-03-11T09:24:06.835Z,90624.47
2023-03-11T09:26:33.706Z,90626.25
2023-03-11T09:29:00.235Z,90637.19
2023-03-11T09:31:26.773Z,90641.53
2023-03-11T09:33:55.447Z,90649.97
2023-03-11T09:36:22.389Z,90653.03
2023-03-11T09:38:49.225Z,90667.94
2023-03-11T09:41:51.567Z,90675.25
2023-03-11T09:44:32.947Z,90681.09
2023-03-11T09:47:32.063Z,90693.03
2023-03-11T09:50:05.835Z,90694.56
2023-03-11T09:52:44.549Z,90700.53
2023-03-11T09:55:25.354Z,90695.66
2023-03-11T09:57:52.767Z,90701.16
2023-03-11T10:00:20.941Z,90712.41
2023-03-11T10:02:47.708Z,90713.31
2023-03-11T10:05:28.072Z,90726.09
2023-03-11T10:08:04.503Z,90728.94
2023-03-11T10:10:35.306Z,90731.28
2023-03-11T10:13:24.504Z,90741.94
2023-03-11T10:16:09.072Z,90750.56
2023-03-11T10:18:45.019Z,90749.28
2023-03-11T10:21:20.566Z,90748.22
2023-03-11T10:23:57.248Z,90762.78
2023-03-11T10:26:35.788Z,90761.44
2023-03-11T10:29:29.368Z,90759.91
2023-03-11T10:32:17.593Z,90774.38
2023-03-11T10:34:49.792Z,90770.63
2023-03-11T10:37:48.263Z,90780.16
2023-03-11T10:40:30.996Z,90779.75
2023-03-11T10:43:00.992Z,90794.22
2023-03-11T10:45:29.138Z,90793.78
2023-03-11T10:47:57.943Z,90797.47
2023-03-11T10:50:24.617Z,90806.28
2023-03-11T10:53:29.745Z,90806.72
2023-03-11T10:55:58.903Z,90813.69
2023-03-11T10:58:30.564Z,90818.38
2023-03-11T11:01:11.738Z,90829.38
2023-03-11T11:03:42.405Z,90839.03
2023-03-11T11:06:26.692Z,90843.34
2023-03-11T11:09:20.007Z,90840.00
2023-03-11T11:12:06.855Z,90841.25
2023-03-11T11:14:46.452Z,90852.50
2023-03-11T11:17:29.983Z,90860.13
2023-03-11T11:19:58.165Z,90859.13
2023-03-11T11:22:25.394Z,90864.84
2023-03-11T11:24:53.949Z,90872.09
2023-03-11T11:27:23.391Z,90872.78
2023-03-11T11:30:08.956Z,90891.25
2023-03-11T11:32:36.583Z,90892.31
2023-03-11T11:35:12.032Z,90901.81
2023-03-11T11:37:48.398Z,90912.19
2023-03-11T11:40:15.946Z,90914.19
2023-03-11T11:42:46.619Z,90915.31
2023-03-11T11:45:24.382Z,90921.69
2023-03-11T11:47:54.489Z,90933.78
2023-03-11T11:50:42.313Z,90932.81
2023-03-11T11:53:34.957Z,90944.38
2023-03-11T11:56:01.629Z,90953.00
2023-03-11T11:58:28.670Z,90954.47
2023-03-11T12:01:22.021Z,90960.63
2023-03-11T12:04:26.435Z,90967.56
2023-03-11T12:07:09.298Z,90978.06
2023-03-11T12:10:09.874Z,90979.16
2023-03-11T12:13:07.721Z,90972.47
2023-03-11T12:15:42.901Z,90992.94
2023-03-11T12:18:19.172Z,91003.78
2023-03-11T12:20:49.717Z,90997.72
2023-03-11T12:23:17.986Z,91012.44
2023-03-11T12:25:52.126Z,91019.81
2023-03-11T12:28:29.114Z,91031.38
2023-03-11T12:30:59.909Z,91031.59
2023-03-11T12:33:45.063Z,91030.72
2023-03-11T12:36:41.752Z,91043.13
2023-03-11T12:39:20.857Z,91039.63
2023-03-11T12:41:47.369Z,91046.59
2023-03-11T12:44:24.565Z,91055.88
2023-03-11T12:46:59.866Z,91069.75
2023-03-11T12:49:55.128Z,91080.09
2023-03-11T12:52:24.492Z,91092.28
2023-03-11T12:54:56.696Z,91102.09
2023-03-11T12:57:35.821Z,91107.84
2023-03-11T13:00:26.968Z,91118.91
2023-03-11T13:03:02.371Z,91121.53
2023-03-11T13:05:51.473Z,91128.25
2023-03-11T13:08:21.773Z,91133.78
2023-03-11T13:10:55.613Z,91139.44
2023-03-11T13:13:32.871Z,91145.25
2023-03-11T13:16:19.654Z,91146.09
2023-03-11T13:18:48.188Z,91154.72
2023-03-11T13:21:38.293Z,91160.38
2023-03-11T13:24:21.352Z,91156.13
2023-03-11T13:26:59.873Z,91162.63
2023-03-11T13:29:45.600Z,91166.63
2023-03-11T13:32:29.007Z,91187.94
2023-03-11T13:35:33.374Z,91190.69
2023-03-11T13:38:34.345Z,91195.34
2023-03-11T13:41:01.973Z,91205.34
2023-03-11T13:43:29.203Z,91208.28
2023-03-11T13:46:02.182Z,91215.22
2023-03-11T13:48:31.211Z,91236.19
2023-03-11T13:51:02.356Z,91226.66
2023-03-11T13:53:32.759Z,91228.16
2023-03-11T13:55:59.252Z,91236.44
2023-03-11T13:58:27.362Z,91235.72
2023-03-11T14:00:55.949Z,91239.31
2023-03-11T14:03:25.338Z,91237.09
2023-03-11T14:06:07.312Z,91238.81
2023-03-11T14:08:35.907Z,91258.72
2023-03-11T14:11:04.536Z,91255.44
2023-03-11T14:13:38.479Z,91267.28
2023-03-11T14:16:11.036Z,91267.28
2023-03-11T14:18:39.688Z,91274.22
2023-03-11T14:21:15.061Z,91265.44
2023-03-11T14:23:44.859Z,91274.38
2023-03-11T14:26:26.595Z,91281.16
2023-03-11T14:28:55.766Z,91300.66
2023-03-11T14:31:34.602Z,91298.19
2023-03-11T14:34:06.811Z,91300.41
2023-03-11T14:36:48.499Z,91310.00
2023-03-11T14:39:38.256Z,91314.91
2023-03-11T14:42:26.312Z,91325.25
2023-03-11T14:45:05.428Z,91323.81
2023-03-11T14:47:31.870Z,91334.13
2023-03-11T14:49:58.931Z,91328.94
2023-03-11T14:52:34.476Z,91342.38
2023-03-11T14:55:01.653Z,91346.19
2023-03-11T14:57:37.882Z,91343.78
2023-03-11T15:00:08.548Z,91362.59
2023-03-11T15:03:17.043Z,91352.44
2023-03-11T15:05:48.508Z,91350.00
2023-03-11T15:08:18.684Z,91361.03
2023-03-11T15:11:12.640Z,91364.84
2023-03-11T15:13:41.402Z,91370.00
2023-03-11T15:16:43.957Z,91374.59
2023-03-11T15:19:28.306Z,91392.63
2023-03-11T15:21:59.469Z,91390.50
2023-03-11T15:24:28.059Z,91404.16
2023-03-11T15:27:06.421Z,91405.13
2023-03-11T15:29:34.008Z,91405.81
2023-03-11T15:32:01.372Z,91410.25
2023-03-11T15:34:32.560Z,91421.38
2023-03-11T15:37:20.384Z,91417.41
2023-03-11T15:39:51.138Z,91417.66
2023-03-11T15:42:24.382Z,91426.69
2023-03-11T15:45:02.380Z,91432.88
2023-03-11T15:47:29.043Z,91438.22
2023-03-11T15:49:55.647Z,91460.63
2023-03-11T15:52:22.269Z,91460.19
2023-03-11T15:54:55.583Z,91460.97
2023-03-11T15:57:26.182Z,91470.66
2023-03-11T15:59:54.059Z,91487.75
2023-03-11T16:02:26.323Z,91473.28
